sensor_id;sensor_type;location;lat;lon;timestamp;temperature;humidity
49489;SHT31;35382;51.484;11.476;2022-07-06T00:01:12;16.51;59.91
49489;SHT31;35382;51.484;11.476;2022-07-06T00:02:53;16.46;59.94
49489;SHT31;35382;51.484;11.476;2022-07-06T00:04:34;16.39;60.42
49489;SHT31;35382;51.484;11.476;2022-07-06T00:06:15;16.40;60.60
49489;SHT31;35382;51.484;11.476;2022-07-06T00:07:57;16.46;61.09
49489;SHT31;35382;51.484;11.476;2022-07-06T00:09:38;16.53;60.62
49489;SHT31;35382;51.484;11.476;2022-07-06T00:11:19;16.47;60.43
49489;SHT31;35382;51.484;11.476;2022-07-06T00:13:00;16.47;60.97
49489;SHT31;35382;51.484;11.476;2022-07-06T00:14:41;16.39;61.00
49489;SHT31;35382;51.484;11.476;2022-07-06T00:16:22;16.31;61.90
49489;SHT31;35382;51.484;11.476;2022-07-06T00:18:03;16.29;61.67
49489;SHT31;35382;51.484;11.476;2022-07-06T00:19:44;16.30;61.84
49489;SHT31;35382;51.484;11.476;2022-07-06T00:21:25;16.23;61.86
49489;SHT31;35382;51.484;11.476;2022-07-06T00:23:06;16.19;62.42
49489;SHT31;35382;51.484;11.476;2022-07-06T00:24:47;16.16;62.60
49489;SHT31;35382;51.484;11.476;2022-07-06T00:26:28;16.13;62.98
49489;SHT31;35382;51.484;11.476;2022-07-06T00:28:09;16.07;63.40
49489;SHT31;35382;51.484;11.476;2022-07-06T00:29:50;15.93;63.68
49489;SHT31;35382;51.484;11.476;2022-07-06T00:31:31;15.89;64.17
49489;SHT31;35382;51.484;11.476;2022-07-06T00:33:12;15.92;64.22
49489;SHT31;35382;51.484;11.476;2022-07-06T00:34:53;15.85;64.69
49489;SHT31;35382;51.484;11.476;2022-07-06T00:36:33;15.75;65.31
49489;SHT31;35382;51.484;11.476;2022-07-06T00:38:14;15.66;65.56
49489;SHT31;35382;51.484;11.476;2022-07-06T00:39:55;15.70;65.65
49489;SHT31;35382;51.484;11.476;2022-07-06T00:41:36;15.62;65.97
49489;SHT31;35382;51.484;11.476;2022-07-06T00:43:17;15.56;66.37
49489;SHT31;35382;51.484;11.476;2022-07-06T00:44:58;15.43;66.88
49489;SHT31;35382;51.484;11.476;2022-07-06T00:46:39;15.55;67.10
49489;SHT31;35382;51.484;11.476;2022-07-06T00:48:20;15.42;67.33
49489;SHT31;35382;51.484;11.476;2022-07-06T00:50:02;15.51;67.59
49489;SHT31;35382;51.484;11.476;2022-07-06T00:51:56;15.62;67.38
49489;SHT31;35382;51.484;11.476;2022-07-06T00:53:38;15.69;67.32
49489;SHT31;35382;51.484;11.476;2022-07-06T00:55:32;15.65;67.57
49489;SHT31;35382;51.484;11.476;2022-07-06T00:57:14;15.53;67.82
49489;SHT31;35382;51.484;11.476;2022-07-06T00:58:55;15.56;67.81
49489;SHT31;35382;51.484;11.476;2022-07-06T01:00:36;15.52;67.97
49489;SHT31;35382;51.484;11.476;2022-07-06T01:02:16;15.51;68.43
49489;SHT31;35382;51.484;11.476;2022-07-06T01:03:58;15.56;68.28
49489;SHT31;35382;51.484;11.476;2022-07-06T01:05:39;15.69;68.15
49489;SHT31;35382;51.484;11.476;2022-07-06T01:07:20;15.56;68.51
49489;SHT31;35382;51.484;11.476;2022-07-06T01:09:01;15.65;68.39
49489;SHT31;35382;51.484;11.476;2022-07-06T01:10:42;15.58;68.40
49489;SHT31;35382;51.484;11.476;2022-07-06T01:12:24;15.55;68.94
49489;SHT31;35382;51.484;11.476;2022-07-06T01:14:05;15.59;68.77
49489;SHT31;35382;51.484;11.476;2022-07-06T01:15:47;15.66;68.87
49489;SHT31;35382;51.484;11.476;2022-07-06T01:17:28;15.49;69.10
49489;SHT31;35382;51.484;11.476;2022-07-06T01:19:10;15.43;69.32
49489;SHT31;35382;51.484;11.476;2022-07-06T01:20:51;15.55;69.62
49489;SHT31;35382;51.484;11.476;2022-07-06T01:22:32;15.55;69.48
49489;SHT31;35382;51.484;11.476;2022-07-06T01:24:13;15.43;69.48
49489;SHT31;35382;51.484;11.476;2022-07-06T01:25:55;15.48;69.49
49489;SHT31;35382;51.484;11.476;2022-07-06T01:27:37;15.52;69.42
49489;SHT31;35382;51.484;11.476;2022-07-06T01:29:19;15.45;69.58
49489;SHT31;35382;51.484;11.476;2022-07-06T01:31:01;15.51;69.71
49489;SHT31;35382;51.484;11.476;2022-07-06T01:32:42;15.58;69.49
49489;SHT31;35382;51.484;11.476;2022-07-06T01:34:23;15.51;69.84
49489;SHT31;35382;51.484;11.476;2022-07-06T01:36:04;15.52;69.95
49489;SHT31;35382;51.484;11.476;2022-07-06T01:37:45;15.55;69.76
49489;SHT31;35382;51.484;11.476;2022-07-06T01:39:28;15.46;69.91
49489;SHT31;35382;51.484;11.476;2022-07-06T01:41:09;15.46;70.13
49489;SHT31;35382;51.484;11.476;2022-07-06T01:42:50;15.43;70.25
49489;SHT31;35382;51.484;11.476;2022-07-06T01:44:31;15.38;70.42
49489;SHT31;35382;51.484;11.476;2022-07-06T01:46:14;15.51;70.44
49489;SHT31;35382;51.484;11.476;2022-07-06T01:47:55;15.42;70.40
49489;SHT31;35382;51.484;11.476;2022-07-06T01:49:36;15.52;70.38
49489;SHT31;35382;51.484;11.476;2022-07-06T01:51:17;15.42;70.59
49489;SHT31;35382;51.484;11.476;2022-07-06T01:52:59;15.38;70.81
49489;SHT31;35382;51.484;11.476;2022-07-06T01:54:41;15.35;70.85
49489;SHT31;35382;51.484;11.476;2022-07-06T01:56:22;15.34;70.87
49489;SHT31;35382;51.484;11.476;2022-07-06T01:58:07;15.25;71.35
49489;SHT31;35382;51.484;11.476;2022-07-06T01:59:49;15.19;71.29
49489;SHT31;35382;51.484;11.476;2022-07-06T02:01:31;15.14;71.68
49489;SHT31;35382;51.484;11.476;2022-07-06T02:03:12;15.22;71.81
49489;SHT31;35382;51.484;11.476;2022-07-06T02:04:53;15.15;71.85
49489;SHT31;35382;51.484;11.476;2022-07-06T02:06:34;15.09;72.12
49489;SHT31;35382;51.484;11.476;2022-07-06T02:08:15;15.01;72.46
49489;SHT31;35382;51.484;11.476;2022-07-06T02:09:56;15.01;72.38
49489;SHT31;35382;51.484;11.476;2022-07-06T02:11:39;15.01;72.61
49489;SHT31;35382;51.484;11.476;2022-07-06T02:13:20;14.99;72.65
49489;SHT31;35382;51.484;11.476;2022-07-06T02:15:01;15.04;72.67
49489;SHT31;35382;51.484;11.476;2022-07-06T02:16:42;15.01;72.45
49489;SHT31;35382;51.484;11.476;2022-07-06T02:18:23;14.96;72.76
49489;SHT31;35382;51.484;11.476;2022-07-06T02:20:05;14.96;72.44
49489;SHT31;35382;51.484;11.476;2022-07-06T02:21:46;15.01;72.82
49489;SHT31;35382;51.484;11.476;2022-07-06T02:23:27;15.02;72.63
49489;SHT31;35382;51.484;11.476;2022-07-06T02:25:08;15.05;72.54
49489;SHT31;35382;51.484;11.476;2022-07-06T02:26:49;15.05;72.36
49489;SHT31;35382;51.484;11.476;2022-07-06T02:28:31;15.02;72.73
49489;SHT31;35382;51.484;11.476;2022-07-06T02:30:12;15.05;72.58
49489;SHT31;35382;51.484;11.476;2022-07-06T02:31:53;15.09;72.72
49489;SHT31;35382;51.484;11.476;2022-07-06T02:33:34;15.04;72.39
49489;SHT31;35382;51.484;11.476;2022-07-06T02:35:15;15.08;72.61
49489;SHT31;35382;51.484;11.476;2022-07-06T02:36:57;15.04;72.97
49489;SHT31;35382;51.484;11.476;2022-07-06T02:38:38;14.89;73.14
49489;SHT31;35382;51.484;11.476;2022-07-06T02:40:20;14.99;73.22
49489;SHT31;35382;51.484;11.476;2022-07-06T02:42:01;14.87;73.45
49489;SHT31;35382;51.484;11.476;2022-07-06T02:43:42;14.85;73.66
49489;SHT31;35382;51.484;11.476;2022-07-06T02:45:24;14.80;73.87
49489;SHT31;35382;51.484;11.476;2022-07-06T02:47:05;14.78;74.04
49489;SHT31;35382;51.484;11.476;2022-07-06T02:48:46;14.81;74.09
49489;SHT31;35382;51.484;11.476;2022-07-06T02:50:27;14.78;74.06
49489;SHT31;35382;51.484;11.476;2022-07-06T02:52:09;14.73;74.62
49489;SHT31;35382;51.484;11.476;2022-07-06T02:53:51;14.83;74.40
49489;SHT31;35382;51.484;11.476;2022-07-06T02:55:32;14.84;74.46
49489;SHT31;35382;51.484;11.476;2022-07-06T02:57:14;14.89;74.51
49489;SHT31;35382;51.484;11.476;2022-07-06T02:58:55;14.84;74.22
49489;SHT31;35382;51.484;11.476;2022-07-06T03:00:36;15.02;73.90
49489;SHT31;35382;51.484;11.476;2022-07-06T03:02:17;15.01;73.84
49489;SHT31;35382;51.484;11.476;2022-07-06T03:03:58;15.07;73.60
49489;SHT31;35382;51.484;11.476;2022-07-06T03:05:40;15.01;73.85
49489;SHT31;35382;51.484;11.476;2022-07-06T03:07:21;15.01;73.93
49489;SHT31;35382;51.484;11.476;2022-07-06T03:09:03;14.95;74.37
49489;SHT31;35382;51.484;11.476;2022-07-06T03:10:43;14.91;74.24
49489;SHT31;35382;51.484;11.476;2022-07-06T03:12:24;14.94;74.32
49489;SHT31;35382;51.484;11.476;2022-07-06T03:14:06;15.02;74.16
49489;SHT31;35382;51.484;11.476;2022-07-06T03:15:49;14.99;74.00
49489;SHT31;35382;51.484;11.476;2022-07-06T03:17:31;15.08;74.09
49489;SHT31;35382;51.484;11.476;2022-07-06T03:19:12;15.08;73.51
49489;SHT31;35382;51.484;11.476;2022-07-06T03:20:53;15.11;73.44
49489;SHT31;35382;51.484;11.476;2022-07-06T03:22:35;15.07;73.43
49489;SHT31;35382;51.484;11.476;2022-07-06T03:24:18;15.07;73.26
49489;SHT31;35382;51.484;11.476;2022-07-06T03:25:59;15.11;73.53
49489;SHT31;35382;51.484;11.476;2022-07-06T03:27:40;14.98;73.60
49489;SHT31;35382;51.484;11.476;2022-07-06T03:29:21;14.91;73.17
49489;SHT31;35382;51.484;11.476;2022-07-06T03:31:02;14.88;73.75
49489;SHT31;35382;51.484;11.476;2022-07-06T03:32:43;14.87;73.71
49489;SHT31;35382;51.484;11.476;2022-07-06T03:34:25;14.98;73.73
49489;SHT31;35382;51.484;11.476;2022-07-06T03:36:06;14.95;73.47
49489;SHT31;35382;51.484;11.476;2022-07-06T03:37:49;14.91;73.71
49489;SHT31;35382;51.484;11.476;2022-07-06T03:39:30;14.89;74.07
49489;SHT31;35382;51.484;11.476;2022-07-06T03:41:12;14.84;73.66
49489;SHT31;35382;51.484;11.476;2022-07-06T03:42:53;14.81;73.97
49489;SHT31;35382;51.484;11.476;2022-07-06T03:44:35;14.77;73.75
49489;SHT31;35382;51.484;11.476;2022-07-06T03:46:17;14.71;74.37
49489;SHT31;35382;51.484;11.476;2022-07-06T03:47:58;14.73;73.70
49489;SHT31;35382;51.484;11.476;2022-07-06T03:49:39;14.88;73.62
49489;SHT31;35382;51.484;11.476;2022-07-06T03:51:22;14.77;73.38
49489;SHT31;35382;51.484;11.476;2022-07-06T03:53:04;14.88;72.64
49489;SHT31;35382;51.484;11.476;2022-07-06T03:54:45;14.96;72.96
49489;SHT31;35382;51.484;11.476;2022-07-06T03:56:32;15.01;72.66
49489;SHT31;35382;51.484;11.476;2022-07-06T03:58:26;14.99;72.31
49489;SHT31;35382;51.484;11.476;2022-07-06T04:00:08;15.01;72.97
49489;SHT31;35382;51.484;11.476;2022-07-06T04:01:55;14.95;72.64
49489;SHT31;35382;51.484;11.476;2022-07-06T04:03:36;14.96;72.65
49489;SHT31;35382;51.484;11.476;2022-07-06T04:05:17;14.83;73.19
49489;SHT31;35382;51.484;11.476;2022-07-06T04:07:02;14.91;72.14
49489;SHT31;35382;51.484;11.476;2022-07-06T04:08:43;14.83;72.20
49489;SHT31;35382;51.484;11.476;2022-07-06T04:10:24;15.14;71.87
49489;SHT31;35382;51.484;11.476;2022-07-06T04:12:06;15.29;71.24
49489;SHT31;35382;51.484;11.476;2022-07-06T04:13:47;15.36;71.77
49489;SHT31;35382;51.484;11.476;2022-07-06T04:15:28;15.46;71.01
49489;SHT31;35382;51.484;11.476;2022-07-06T04:17:09;15.43;70.64
49489;SHT31;35382;51.484;11.476;2022-07-06T04:19:09;15.92;69.43
49489;SHT31;35382;51.484;11.476;2022-07-06T04:20:50;15.95;70.07
49489;SHT31;35382;51.484;11.476;2022-07-06T04:22:32;15.66;70.31
49489;SHT31;35382;51.484;11.476;2022-07-06T04:24:13;15.48;70.59
49489;SHT31;35382;51.484;11.476;2022-07-06T04:25:54;15.35;71.50
49489;SHT31;35382;51.484;11.476;2022-07-06T04:27:35;15.24;71.06
49489;SHT31;35382;51.484;11.476;2022-07-06T04:29:16;15.29;71.92
49489;SHT31;35382;51.484;11.476;2022-07-06T04:30:57;15.28;71.79
49489;SHT31;35382;51.484;11.476;2022-07-06T04:32:39;15.09;72.06
49489;SHT31;35382;51.484;11.476;2022-07-06T04:34:20;15.09;71.54
49489;SHT31;35382;51.484;11.476;2022-07-06T04:36:01;15.14;71.84
49489;SHT31;35382;51.484;11.476;2022-07-06T04:37:50;15.28;71.60
49489;SHT31;35382;51.484;11.476;2022-07-06T04:39:34;15.28;72.25
49489;SHT31;35382;51.484;11.476;2022-07-06T04:41:16;15.12;71.37
49489;SHT31;35382;51.484;11.476;2022-07-06T04:42:58;15.17;71.17
49489;SHT31;35382;51.484;11.476;2022-07-06T04:44:40;15.04;71.14
49489;SHT31;35382;51.484;11.476;2022-07-06T04:46:21;15.18;71.41
49489;SHT31;35382;51.484;11.476;2022-07-06T04:48:05;15.58;71.22
49489;SHT31;35382;51.484;11.476;2022-07-06T04:49:49;15.39;69.32
49489;SHT31;35382;51.484;11.476;2022-07-06T04:51:31;16.07;68.31
49489;SHT31;35382;51.484;11.476;2022-07-06T04:53:13;15.87;69.83
49489;SHT31;35382;51.484;11.476;2022-07-06T04:54:54;15.89;69.78
49489;SHT31;35382;51.484;11.476;2022-07-06T04:56:35;15.83;70.24
49489;SHT31;35382;51.484;11.476;2022-07-06T04:58:17;15.70;68.26
49489;SHT31;35382;51.484;11.476;2022-07-06T04:59:58;15.62;69.07
49489;SHT31;35382;51.484;11.476;2022-07-06T05:01:39;15.66;70.37
49489;SHT31;35382;51.484;11.476;2022-07-06T05:03:21;15.70;69.63
49489;SHT31;35382;51.484;11.476;2022-07-06T05:05:02;15.51;69.53
49489;SHT31;35382;51.484;11.476;2022-07-06T05:06:44;15.67;69.18
49489;SHT31;35382;51.484;11.476;2022-07-06T05:08:25;15.53;69.60
49489;SHT31;35382;51.484;11.476;2022-07-06T05:10:08;15.49;69.77
49489;SHT31;35382;51.484;11.476;2022-07-06T05:11:49;15.46;69.55
49489;SHT31;35382;51.484;11.476;2022-07-06T05:13:30;15.45;69.71
49489;SHT31;35382;51.484;11.476;2022-07-06T05:15:11;15.41;70.27
49489;SHT31;35382;51.484;11.476;2022-07-06T05:16:53;15.28;70.18
49489;SHT31;35382;51.484;11.476;2022-07-06T05:18:34;15.36;70.17
49489;SHT31;35382;51.484;11.476;2022-07-06T05:20:15;15.27;70.68
49489;SHT31;35382;51.484;11.476;2022-07-06T05:21:59;15.29;71.10
49489;SHT31;35382;51.484;11.476;2022-07-06T05:23:40;15.34;71.07
49489;SHT31;35382;51.484;11.476;2022-07-06T05:25:21;15.49;70.43
49489;SHT31;35382;51.484;11.476;2022-07-06T05:27:03;15.75;69.50
49489;SHT31;35382;51.484;11.476;2022-07-06T05:28:43;15.52;69.78
49489;SHT31;35382;51.484;11.476;2022-07-06T05:30:28;15.70;69.77
49489;SHT31;35382;51.484;11.476;2022-07-06T05:32:09;15.62;70.35
49489;SHT31;35382;51.484;11.476;2022-07-06T05:33:50;15.66;70.40
49489;SHT31;35382;51.484;11.476;2022-07-06T05:35:31;15.66;69.31
49489;SHT31;35382;51.484;11.476;2022-07-06T05:37:14;15.70;68.40
49489;SHT31;35382;51.484;11.476;2022-07-06T05:38:55;15.69;68.92
49489;SHT31;35382;51.484;11.476;2022-07-06T05:40:36;15.72;68.69
49489;SHT31;35382;51.484;11.476;2022-07-06T05:42:17;15.67;69.72
49489;SHT31;35382;51.484;11.476;2022-07-06T05:44:00;15.69;69.20
49489;SHT31;35382;51.484;11.476;2022-07-06T05:45:41;15.70;68.19
49489;SHT31;35382;51.484;11.476;2022-07-06T05:47:23;15.85;68.51
49489;SHT31;35382;51.484;11.476;2022-07-06T05:49:22;16.60;65.03
49489;SHT31;35382;51.484;11.476;2022-07-06T05:51:22;16.23;66.38
49489;SHT31;35382;51.484;11.476;2022-07-06T05:53:04;16.13;66.92
49489;SHT31;35382;51.484;11.476;2022-07-06T05:54:45;16.36;67.34
49489;SHT31;35382;51.484;11.476;2022-07-06T05:56:26;16.27;65.87
49489;SHT31;35382;51.484;11.476;2022-07-06T05:58:07;16.19;65.23
49489;SHT31;35382;51.484;11.476;2022-07-06T05:59:49;16.60;66.38
49489;SHT31;35382;51.484;11.476;2022-07-06T06:01:30;16.49;65.41
49489;SHT31;35382;51.484;11.476;2022-07-06T06:03:22;17.27;63.96
49489;SHT31;35382;51.484;11.476;2022-07-06T06:05:05;16.71;64.19
49489;SHT31;35382;51.484;11.476;2022-07-06T06:06:46;17.01;63.93
49489;SHT31;35382;51.484;11.476;2022-07-06T06:08:28;16.92;63.91
49489;SHT31;35382;51.484;11.476;2022-07-06T06:10:11;16.34;63.00
49489;SHT31;35382;51.484;11.476;2022-07-06T06:11:52;15.97;64.96
49489;SHT31;35382;51.484;11.476;2022-07-06T06:13:33;16.65;63.32
49489;SHT31;35382;51.484;11.476;2022-07-06T06:15:14;17.04;63.13
49489;SHT31;35382;51.484;11.476;2022-07-06T06:16:54;16.73;63.17
49489;SHT31;35382;51.484;11.476;2022-07-06T06:18:36;16.60;63.27
49489;SHT31;35382;51.484;11.476;2022-07-06T06:20:16;16.83;62.96
49489;SHT31;35382;51.484;11.476;2022-07-06T06:21:57;17.17;60.60
49489;SHT31;35382;51.484;11.476;2022-07-06T06:23:38;17.31;61.98
49489;SHT31;35382;51.484;11.476;2022-07-06T06:25:26;17.25;60.81
49489;SHT31;35382;51.484;11.476;2022-07-06T06:27:07;17.14;61.43
49489;SHT31;35382;51.484;11.476;2022-07-06T06:28:48;17.22;60.09
49489;SHT31;35382;51.484;11.476;2022-07-06T06:30:30;17.28;60.55
49489;SHT31;35382;51.484;11.476;2022-07-06T06:32:12;17.66;59.39
49489;SHT31;35382;51.484;11.476;2022-07-06T06:33:53;17.48;60.35
49489;SHT31;35382;51.484;11.476;2022-07-06T06:35:34;17.15;61.39
49489;SHT31;35382;51.484;11.476;2022-07-06T06:37:15;16.78;59.33
49489;SHT31;35382;51.484;11.476;2022-07-06T06:38:56;16.63;61.65
49489;SHT31;35382;51.484;11.476;2022-07-06T06:40:37;16.47;62.10
49489;SHT31;35382;51.484;11.476;2022-07-06T06:42:18;16.20;62.85
49489;SHT31;35382;51.484;11.476;2022-07-06T06:43:59;15.92;60.93
49489;SHT31;35382;51.484;11.476;2022-07-06T06:45:43;15.83;61.23
49489;SHT31;35382;51.484;11.476;2022-07-06T06:47:25;15.87;61.28
49489;SHT31;35382;51.484;11.476;2022-07-06T06:49:06;15.87;62.47
49489;SHT31;35382;51.484;11.476;2022-07-06T06:50:47;15.95;61.85
49489;SHT31;35382;51.484;11.476;2022-07-06T06:52:28;16.09;61.54
49489;SHT31;35382;51.484;11.476;2022-07-06T06:54:09;16.47;60.54
49489;SHT31;35382;51.484;11.476;2022-07-06T06:55:50;17.01;58.60
49489;SHT31;35382;51.484;11.476;2022-07-06T06:57:31;17.90;58.48
49489;SHT31;35382;51.484;11.476;2022-07-06T06:59:12;18.13;56.39
49489;SHT31;35382;51.484;11.476;2022-07-06T07:00:52;17.61;57.74
49489;SHT31;35382;51.484;11.476;2022-07-06T07:02:33;17.22;58.58
49489;SHT31;35382;51.484;11.476;2022-07-06T07:04:14;17.83;57.55
49489;SHT31;35382;51.484;11.476;2022-07-06T07:05:55;18.00;56.34
49489;SHT31;35382;51.484;11.476;2022-07-06T07:07:36;17.72;54.50
49489;SHT31;35382;51.484;11.476;2022-07-06T07:09:17;17.48;56.72
49489;SHT31;35382;51.484;11.476;2022-07-06T07:10:58;17.83;56.01
49489;SHT31;35382;51.484;11.476;2022-07-06T07:12:44;17.62;56.46
49489;SHT31;35382;51.484;11.476;2022-07-06T07:14:25;17.73;57.74
49489;SHT31;35382;51.484;11.476;2022-07-06T07:16:08;17.39;57.58
49489;SHT31;35382;51.484;11.476;2022-07-06T07:17:49;17.46;57.27
49489;SHT31;35382;51.484;11.476;2022-07-06T07:19:30;17.42;57.09
49489;SHT31;35382;51.484;11.476;2022-07-06T07:21:11;17.31;58.99
49489;SHT31;35382;51.484;11.476;2022-07-06T07:22:52;17.29;58.72
49489;SHT31;35382;51.484;11.476;2022-07-06T07:24:33;17.29;56.28
49489;SHT31;35382;51.484;11.476;2022-07-06T07:26:13;17.21;56.33
49489;SHT31;35382;51.484;11.476;2022-07-06T07:27:54;17.19;55.19
49489;SHT31;35382;51.484;11.476;2022-07-06T07:29:35;17.19;55.84
49489;SHT31;35382;51.484;11.476;2022-07-06T07:31:16;17.07;55.09
49489;SHT31;35382;51.484;11.476;2022-07-06T07:32:57;17.22;56.39
49489;SHT31;35382;51.484;11.476;2022-07-06T07:34:40;17.10;54.94
49489;SHT31;35382;51.484;11.476;2022-07-06T07:36:21;17.12;55.01
49489;SHT31;35382;51.484;11.476;2022-07-06T07:38:02;17.14;54.65
49489;SHT31;35382;51.484;11.476;2022-07-06T07:39:43;17.34;54.09
49489;SHT31;35382;51.484;11.476;2022-07-06T07:41:24;17.63;55.26
49489;SHT31;35382;51.484;11.476;2022-07-06T07:43:05;17.45;52.94
49489;SHT31;35382;51.484;11.476;2022-07-06T07:44:46;17.59;55.01
49489;SHT31;35382;51.484;11.476;2022-07-06T07:46:27;17.55;54.75
49489;SHT31;35382;51.484;11.476;2022-07-06T07:48:08;17.85;54.38
49489;SHT31;35382;51.484;11.476;2022-07-06T07:49:50;18.41;54.52
49489;SHT31;35382;51.484;11.476;2022-07-06T07:51:31;18.27;52.17
49489;SHT31;35382;51.484;11.476;2022-07-06T07:53:11;17.92;53.19
49489;SHT31;35382;51.484;11.476;2022-07-06T07:54:52;17.97;55.25
49489;SHT31;35382;51.484;11.476;2022-07-06T07:56:33;18.17;52.65
49489;SHT31;35382;51.484;11.476;2022-07-06T07:58:14;18.30;55.10
49489;SHT31;35382;51.484;11.476;2022-07-06T07:59:55;18.16;52.57
49489;SHT31;35382;51.484;11.476;2022-07-06T08:01:36;17.75;52.92
49489;SHT31;35382;51.484;11.476;2022-07-06T08:03:17;17.75;55.46
49489;SHT31;35382;51.484;11.476;2022-07-06T08:04:58;17.34;55.36
49489;SHT31;35382;51.484;11.476;2022-07-06T08:06:39;17.27;55.99
49489;SHT31;35382;51.484;11.476;2022-07-06T08:08:20;17.08;55.65
49489;SHT31;35382;51.484;11.476;2022-07-06T08:10:01;17.17;56.03
49489;SHT31;35382;51.484;11.476;2022-07-06T08:11:42;17.19;56.53
49489;SHT31;35382;51.484;11.476;2022-07-06T08:13:23;17.22;56.10
49489;SHT31;35382;51.484;11.476;2022-07-06T08:15:05;17.15;56.44
49489;SHT31;35382;51.484;11.476;2022-07-06T08:16:46;17.38;56.47
49489;SHT31;35382;51.484;11.476;2022-07-06T08:18:27;17.45;56.82
49489;SHT31;35382;51.484;11.476;2022-07-06T08:20:08;17.39;53.54
49489;SHT31;35382;51.484;11.476;2022-07-06T08:21:49;17.31;53.76
49489;SHT31;35382;51.484;11.476;2022-07-06T08:23:30;17.76;52.21
49489;SHT31;35382;51.484;11.476;2022-07-06T08:25:11;18.70;51.82
49489;SHT31;35382;51.484;11.476;2022-07-06T08:26:52;18.94;52.85
49489;SHT31;35382;51.484;11.476;2022-07-06T08:28:33;19.22;51.48
49489;SHT31;35382;51.484;11.476;2022-07-06T08:30:14;19.63;51.11
49489;SHT31;35382;51.484;11.476;2022-07-06T08:31:55;19.39;52.40
49489;SHT31;35382;51.484;11.476;2022-07-06T08:33:36;18.81;53.46
49489;SHT31;35382;51.484;11.476;2022-07-06T08:35:17;18.37;54.02
49489;SHT31;35382;51.484;11.476;2022-07-06T08:36:58;18.07;52.14
49489;SHT31;35382;51.484;11.476;2022-07-06T08:38:39;18.23;52.50
49489;SHT31;35382;51.484;11.476;2022-07-06T08:40:20;18.39;52.39
49489;SHT31;35382;51.484;11.476;2022-07-06T08:42:01;18.22;53.19
49489;SHT31;35382;51.484;11.476;2022-07-06T08:43:43;19.25;52.00
49489;SHT31;35382;51.484;11.476;2022-07-06T08:45:25;19.42;51.55
49489;SHT31;35382;51.484;11.476;2022-07-06T08:47:06;19.34;53.72
49489;SHT31;35382;51.484;11.476;2022-07-06T08:48:50;19.07;51.11
49489;SHT31;35382;51.484;11.476;2022-07-06T08:50:33;18.95;51.50
49489;SHT31;35382;51.484;11.476;2022-07-06T08:52:14;19.57;51.51
49489;SHT31;35382;51.484;11.476;2022-07-06T08:53:55;19.44;50.28
49489;SHT31;35382;51.484;11.476;2022-07-06T08:55:38;18.75;50.44
49489;SHT31;35382;51.484;11.476;2022-07-06T08:57:19;18.47;52.41
49489;SHT31;35382;51.484;11.476;2022-07-06T08:59:00;18.32;52.20
49489;SHT31;35382;51.484;11.476;2022-07-06T09:00:42;18.23;52.11
49489;SHT31;35382;51.484;11.476;2022-07-06T09:02:25;18.20;52.65
49489;SHT31;35382;51.484;11.476;2022-07-06T09:04:07;18.37;52.31
49489;SHT31;35382;51.484;11.476;2022-07-06T09:05:50;18.32;52.34
49489;SHT31;35382;51.484;11.476;2022-07-06T09:07:31;18.40;52.84
49489;SHT31;35382;51.484;11.476;2022-07-06T09:09:19;18.34;52.86
49489;SHT31;35382;51.484;11.476;2022-07-06T09:11:02;18.41;51.66
49489;SHT31;35382;51.484;11.476;2022-07-06T09:12:44;18.61;51.58
49489;SHT31;35382;51.484;11.476;2022-07-06T09:14:25;18.41;51.72
49489;SHT31;35382;51.484;11.476;2022-07-06T09:16:14;18.13;50.00
49489;SHT31;35382;51.484;11.476;2022-07-06T09:17:56;19.00;52.04
49489;SHT31;35382;51.484;11.476;2022-07-06T09:19:37;19.10;51.20
49489;SHT31;35382;51.484;11.476;2022-07-06T09:21:25;19.10;50.30
49489;SHT31;35382;51.484;11.476;2022-07-06T09:23:07;19.51;52.20
49489;SHT31;35382;51.484;11.476;2022-07-06T09:24:48;19.75;49.38
49489;SHT31;35382;51.484;11.476;2022-07-06T09:26:30;20.12;49.86
49489;SHT31;35382;51.484;11.476;2022-07-06T09:28:11;20.22;47.53
49489;SHT31;35382;51.484;11.476;2022-07-06T09:29:52;20.93;49.52
49489;SHT31;35382;51.484;11.476;2022-07-06T09:31:33;20.39;47.42
49489;SHT31;35382;51.484;11.476;2022-07-06T09:33:17;19.90;48.14
49489;SHT31;35382;51.484;11.476;2022-07-06T09:34:58;19.38;48.20
49489;SHT31;35382;51.484;11.476;2022-07-06T09:36:45;19.28;48.21
49489;SHT31;35382;51.484;11.476;2022-07-06T09:38:26;18.97;49.82
49489;SHT31;35382;51.484;11.476;2022-07-06T09:40:15;18.70;49.40
49489;SHT31;35382;51.484;11.476;2022-07-06T09:42:02;18.44;49.70
49489;SHT31;35382;51.484;11.476;2022-07-06T09:43:44;18.37;50.87
49489;SHT31;35382;51.484;11.476;2022-07-06T09:45:28;18.23;49.95
49489;SHT31;35382;51.484;11.476;2022-07-06T09:47:10;18.37;50.70
49489;SHT31;35382;51.484;11.476;2022-07-06T09:48:52;18.33;51.39
49489;SHT31;35382;51.484;11.476;2022-07-06T09:50:41;18.19;50.76
49489;SHT31;35382;51.484;11.476;2022-07-06T09:52:23;17.99;49.60
49489;SHT31;35382;51.484;11.476;2022-07-06T09:54:07;18.10;50.69
49489;SHT31;35382;51.484;11.476;2022-07-06T09:55:54;18.14;50.97
49489;SHT31;35382;51.484;11.476;2022-07-06T09:57:35;18.33;51.46
49489;SHT31;35382;51.484;11.476;2022-07-06T09:59:17;18.56;49.62
49489;SHT31;35382;51.484;11.476;2022-07-06T10:00:59;18.70;48.57
49489;SHT31;35382;51.484;11.476;2022-07-06T10:02:40;19.14;52.35
49489;SHT31;35382;51.484;11.476;2022-07-06T10:04:22;19.55;46.26
49489;SHT31;35382;51.484;11.476;2022-07-06T10:06:04;19.85;48.32
49489;SHT31;35382;51.484;11.476;2022-07-06T10:07:50;20.50;45.01
49489;SHT31;35382;51.484;11.476;2022-07-06T10:09:31;20.72;44.93
49489;SHT31;35382;51.484;11.476;2022-07-06T10:11:14;20.73;44.99
49489;SHT31;35382;51.484;11.476;2022-07-06T10:12:57;20.86;46.98
49489;SHT31;35382;51.484;11.476;2022-07-06T10:14:38;21.12;47.60
49489;SHT31;35382;51.484;11.476;2022-07-06T10:16:24;20.26;46.41
49489;SHT31;35382;51.484;11.476;2022-07-06T10:18:09;20.62;46.71
49489;SHT31;35382;51.484;11.476;2022-07-06T10:19:51;20.86;45.00
49489;SHT31;35382;51.484;11.476;2022-07-06T10:21:36;20.36;46.19
49489;SHT31;35382;51.484;11.476;2022-07-06T10:23:18;19.38;47.98
49489;SHT31;35382;51.484;11.476;2022-07-06T10:24:59;18.73;47.42
49489;SHT31;35382;51.484;11.476;2022-07-06T10:26:41;18.80;48.17
49489;SHT31;35382;51.484;11.476;2022-07-06T10:28:23;19.04;48.94
49489;SHT31;35382;51.484;11.476;2022-07-06T10:30:04;18.77;47.34
49489;SHT31;35382;51.484;11.476;2022-07-06T10:31:47;18.88;49.49
49489;SHT31;35382;51.484;11.476;2022-07-06T10:33:29;18.85;47.52